Terminal Aerodrome Forecast
Issued by NWS Shreveport, LA

Home | Current Version | Previous Version | Text Only | Print | Product List | Glossary On
Versions: 1 2 3 4 5 6 7 8 9 10 11 12 13 14 15 16 17 18 19 20 21 22 23 24 25 26
978
FTUS44 KSHV 230801 AAA
TAFELD
TAF AMD
KELD 230801Z 2308/2406 32005KT P6SM VCSH OVC008
      TEMPO 2310/2314 3SM SHRA BR OVC003
     FM231400 06003KT 2SM BR OVC004
     FM231800 19003KT 4SM BR OVC007
     FM232100 15003KT P6SM OVC015=

USA.gov is the U.S. government's official web portal to all federal, state and local government web resources and services.